Time;durP1;ratioP1;P1;durP2;ratioP2;P2;SDS_P1;SDS_P2;PMS_P1;PMS_P2;Temp;Humidity;BMP_temperature;BMP_pressure;BME280_temperature;BME280_humidity;BME280_pressure;Samples;Min_cycle;Max_cycle;Signal;HPM_P1;HPM_P2
2022/03/29 00:00:58;;;;;;;60.92;29.45;;;;;;;;;;5054410;28;20418;-74
2022/03/29 00:03:24;;;;;;;61.08;29.40;;;;;;;;;;5054465;28;20115;-74
2022/03/29 00:05:50;;;;;;;60.78;30.75;;;;;;;;;;5054160;28;20051;-74
2022/03/29 00:08:16;;;;;;;59.28;29.85;;;;;;;;;;5054343;28;20017;-74
2022/03/29 00:10:43;;;;;;;60.03;29.05;;;;;;;;;;5054031;28;20025;-74
2022/03/29 00:13:09;;;;;;;60.65;28.60;;;;;;;;;;5059598;28;20025;-74
2022/03/29 00:15:35;;;;;;;64.72;29.75;;;;;;;;;;5074114;28;20120;-74
2022/03/29 00:18:01;;;;;;;55.03;29.73;;;;;;;;;;5074099;28;20028;-74
2022/03/29 00:20:27;;;;;;;57.67;30.33;;;;;;;;;;5073988;28;20027;-74
2022/03/29 00:22:53;;;;;;;53.78;29.65;;;;;;;;;;5073926;28;20366;-74
2022/03/29 00:25:19;;;;;;;63.60;30.55;;;;;;;;;;5073854;28;20033;-74
2022/03/29 00:27:45;;;;;;;62.25;30.30;;;;;;;;;;5073849;28;20098;-74
2022/03/29 00:30:12;;;;;;;63.78;29.98;;;;;;;;;;5073785;28;20024;-74
2022/03/29 00:32:42;;;;;;;60.20;30.23;;;;;;;;;;5074049;28;20107;-74
2022/03/29 00:35:11;;;;;;;57.55;29.75;;;;;;;;;;5055782;28;20028;-74
2022/03/29 00:37:41;;;;;;;67.25;31.20;;;;;;;;;;5073782;28;20099;-74
2022/03/29 00:40:08;;;;;;;70.70;33.22;;;;;;;;;;5073758;28;20486;-74
2022/03/29 00:42:35;;;;;;;57.40;30.33;;;;;;;;;;5053944;28;20043;-74
2022/03/29 00:45:01;;;;;;;71.32;32.20;;;;;;;;;;5053448;28;20033;-74
2022/03/29 00:47:27;;;;;;;60.40;30.20;;;;;;;;;;5053633;28;20478;-74
2022/03/29 00:49:53;;;;;;;60.83;30.42;;;;;;;;;;5053540;28;20021;-74
2022/03/29 00:52:20;;;;;;;69.10;32.58;;;;;;;;;;5053496;28;20059;-74
2022/03/29 00:54:46;;;;;;;66.68;32.28;;;;;;;;;;5053452;28;20017;-74
2022/03/29 00:57:12;;;;;;;77.70;31.98;;;;;;;;;;5053354;28;20099;-74
2022/03/29 00:59:43;;;;;;;70.65;32.55;;;;;;;;;;5053290;28;20029;-75
2022/03/29 01:02:09;;;;;;;70.68;32.83;;;;;;;;;;5053379;28;20021;-74
2022/03/29 01:04:35;;;;;;;63.53;31.88;;;;;;;;;;5034297;28;20444;-74
2022/03/29 01:07:01;;;;;;;59.78;31.13;;;;;;;;;;5053136;28;20047;-74
2022/03/29 01:09:28;;;;;;;80.25;33.75;;;;;;;;;;5053147;28;20021;-74
2022/03/29 01:11:54;;;;;;;63.80;32.00;;;;;;;;;;5052997;28;20021;-74
2022/03/29 01:14:21;;;;;;;87.07;35.83;;;;;;;;;;5068263;28;20021;-74
2022/03/29 01:19:32;;;;;;;79.43;35.00;;;;;;;;;;5072844;28;20035;-74
2022/03/29 01:21:59;;;;;;;84.70;34.10;;;;;;;;;;5072877;28;20028;-74
2022/03/29 01:24:25;;;;;;;67.00;33.15;;;;;;;;;;5073116;28;20028;-74
2022/03/29 01:26:52;;;;;;;68.25;32.70;;;;;;;;;;5072511;28;20039;-74
2022/03/29 01:29:19;;;;;;;72.80;34.17;;;;;;;;;;5072601;28;20060;-74
2022/03/29 01:31:45;;;;;;;68.22;33.17;;;;;;;;;;5072655;28;20536;-74
2022/03/29 01:34:12;;;;;;;75.78;33.67;;;;;;;;;;5072587;28;20040;-74
2022/03/29 01:36:38;;;;;;;78.10;35.42;;;;;;;;;;5072647;28;20024;-74
2022/03/29 01:39:04;;;;;;;77.00;32.78;;;;;;;;;;5072377;28;20019;-74
2022/03/29 01:41:30;;;;;;;71.70;32.45;;;;;;;;;;5072265;28;20107;-74
2022/03/29 01:43:57;;;;;;;85.35;32.45;;;;;;;;;;5072500;28;20109;-74
2022/03/29 01:46:23;;;;;;;70.15;31.25;;;;;;;;;;5072139;28;20075;-74
2022/03/29 01:48:49;;;;;;;57.53;30.17;;;;;;;;;;5072453;28;20028;-74
2022/03/29 01:51:16;;;;;;;77.00;33.78;;;;;;;;;;5072228;28;20016;-74
2022/03/29 01:53:42;;;;;;;71.30;32.20;;;;;;;;;;5072306;28;20031;-74
2022/03/29 01:56:08;;;;;;;84.70;33.83;;;;;;;;;;5071894;28;20044;-74
2022/03/29 01:58:34;;;;;;;101.05;35.25;;;;;;;;;;5072245;28;20028;-74
2022/03/29 02:01:00;;;;;;;90.00;35.83;;;;;;;;;;5072146;28;20017;-74
2022/03/29 02:03:26;;;;;;;77.63;34.55;;;;;;;;;;5072148;28;20544;-74
2022/03/29 02:05:53;;;;;;;74.70;34.40;;;;;;;;;;5071910;28;20025;-74
2022/03/29 02:08:20;;;;;;;95.88;35.38;;;;;;;;;;5072212;28;20031;-74
2022/03/29 02:10:46;;;;;;;69.03;32.55;;;;;;;;;;5071944;28;20385;-74
2022/03/29 02:13:12;;;;;;;74.90;33.22;;;;;;;;;;5071976;28;20028;-74
2022/03/29 02:15:41;;;;;;;96.45;34.97;;;;;;;;;;5071812;28;20063;-74
2022/03/29 02:18:07;;;;;;;195.85;41.35;;;;;;;;;;5071917;28;20032;-74
2022/03/29 02:20:33;;;;;;;174.23;38.50;;;;;;;;;;5071759;28;20406;-74
2022/03/29 02:23:04;;;;;;;122.35;34.15;;;;;;;;;;5071844;28;20444;-74
2022/03/29 02:25:30;;;;;;;64.68;30.48;;;;;;;;;;5071567;28;20043;-74
2022/03/29 02:27:56;;;;;;;77.00;30.52;;;;;;;;;;5071736;28;20028;-74
2022/03/29 02:30:22;;;;;;;112.65;33.85;;;;;;;;;;5071762;28;20095;-74
2022/03/29 02:32:48;;;;;;;68.07;31.38;;;;;;;;;;5071914;28;20510;-74
2022/03/29 02:35:14;;;;;;;170.73;37.85;;;;;;;;;;5071720;28;20020;-74
2022/03/29 02:37:40;;;;;;;90.45;33.33;;;;;;;;;;5071657;28;20043;-74
2022/03/29 02:40:07;;;;;;;86.53;31.58;;;;;;;;;;5071661;28;20028;-74
2022/03/29 02:42:39;;;;;;;77.05;31.55;;;;;;;;;;5051975;28;20074;-74
2022/03/29 02:45:07;;;;;;;84.80;32.20;;;;;;;;;;5051423;28;20044;-74
2022/03/29 02:47:33;;;;;;;81.53;32.95;;;;;;;;;;5051582;28;20100;-74
2022/03/29 02:49:59;;;;;;;99.18;33.78;;;;;;;;;;5051509;28;20691;-74
2022/03/29 02:52:25;;;;;;;77.85;31.13;;;;;;;;;;5033509;28;20025;-74
2022/03/29 02:54:51;;;;;;;175.23;34.28;;;;;;;;;;5051444;28;20025;-74
2022/03/29 02:57:17;;;;;;;94.88;31.08;;;;;;;;;;5051378;28;20056;-74
2022/03/29 02:59:45;;;;;;;68.63;30.45;;;;;;;;;;5051435;28;20040;-74
2022/03/29 03:02:11;;;;;;;86.68;30.73;;;;;;;;;;5051431;28;20324;-74
2022/03/29 03:04:37;;;;;;;82.45;28.88;;;;;;;;;;5051456;28;20390;-74
2022/03/29 03:07:03;;;;;;;74.50;30.73;;;;;;;;;;5051212;28;20091;-74
2022/03/29 03:09:29;;;;;;;67.30;29.13;;;;;;;;;;5051263;28;20086;-74
2022/03/29 03:11:56;;;;;;;202.27;42.10;;;;;;;;;;5051301;28;20029;-74
2022/03/29 03:14:22;;;;;;;137.50;36.28;;;;;;;;;;5066783;28;20052;-74
2022/03/29 03:16:48;;;;;;;155.10;33.25;;;;;;;;;;5071432;28;20028;-74
2022/03/29 03:19:14;;;;;;;144.30;37.70;;;;;;;;;;5071147;28;20462;-74
2022/03/29 03:21:40;;;;;;;110.55;34.80;;;;;;;;;;5071148;28;20041;-74
2022/03/29 03:24:06;;;;;;;106.78;34.60;;;;;;;;;;5071490;28;20029;-74
2022/03/29 03:26:32;;;;;;;91.05;32.85;;;;;;;;;;5071058;28;20037;-74
2022/03/29 03:28:58;;;;;;;185.15;39.97;;;;;;;;;;5075083;28;20028;-74
2022/03/29 03:31:24;;;;;;;168.60;34.42;;;;;;;;;;5074890;28;20023;-74
2022/03/29 03:33:50;;;;;;;118.63;34.65;;;;;;;;;;5074956;28;20055;-74
2022/03/29 03:36:17;;;;;;;134.18;35.22;;;;;;;;;;5074847;28;20056;-74
2022/03/29 03:38:42;;;;;;;141.88;34.75;;;;;;;;;;5074858;28;20028;-74
2022/03/29 03:41:09;;;;;;;97.18;33.63;;;;;;;;;;5066786;28;20387;-74
2022/03/29 03:43:35;;;;;;;132.70;36.60;;;;;;;;;;5054800;28;20096;-74
2022/03/29 03:46:01;;;;;;;88.25;32.05;;;;;;;;;;5054419;28;20120;-74
2022/03/29 03:48:27;;;;;;;79.85;31.85;;;;;;;;;;5036823;28;20523;-74
2022/03/29 03:50:53;;;;;;;203.45;35.95;;;;;;;;;;5054451;28;20053;-74
2022/03/29 03:53:19;;;;;;;80.82;31.90;;;;;;;;;;5054726;28;20057;-74
2022/03/29 03:55:45;;;;;;;177.52;36.22;;;;;;;;;;5054332;28;20521;-74
2022/03/29 03:58:13;;;;;;;67.93;30.67;;;;;;;;;;5054495;28;20051;-74
2022/03/29 04:00:39;;;;;;;109.30;32.67;;;;;;;;;;5054436;28;20040;-74
2022/03/29 04:03:05;;;;;;;252.23;41.70;;;;;;;;;;5054502;28;20059;-74
2022/03/29 04:05:34;;;;;;;97.78;30.98;;;;;;;;;;5054270;28;20482;-74
2022/03/29 04:08:00;;;;;;;70.95;30.88;;;;;;;;;;5054341;28;20029;-74
2022/03/29 04:10:26;;;;;;;98.75;33.95;;;;;;;;;;5054247;28;20032;-73
2022/03/29 04:12:52;;;;;;;86.72;32.55;;;;;;;;;;5057165;28;20020;-74
2022/03/29 04:15:18;;;;;;;315.83;47.45;;;;;;;;;;5074128;28;20052;-74
2022/03/29 04:17:44;;;;;;;194.60;39.00;;;;;;;;;;5074215;28;20374;-74
2022/03/29 04:20:10;;;;;;;130.80;35.10;;;;;;;;;;5073957;28;20325;-74
2022/03/29 04:22:36;;;;;;;163.38;38.53;;;;;;;;;;5073927;28;20025;-73
2022/03/29 04:25:03;;;;;;;127.30;34.42;;;;;;;;;;5073937;28;20074;-73
2022/03/29 04:27:29;;;;;;;214.43;41.60;;;;;;;;;;5073730;28;20025;-73
2022/03/29 04:29:55;;;;;;;86.35;31.60;;;;;;;;;;5073719;28;20093;-73
2022/03/29 04:32:21;;;;;;;140.50;35.15;;;;;;;;;;5073865;28;20043;-74
2022/03/29 04:34:48;;;;;;;214.75;37.70;;;;;;;;;;5073658;28;20463;-73
2022/03/29 04:37:14;;;;;;;103.22;31.90;;;;;;;;;;5073683;28;20028;-73
2022/03/29 04:39:40;;;;;;;86.85;30.92;;;;;;;;;;5073546;28;20028;-73
2022/03/29 04:42:07;;;;;;;109.20;32.30;;;;;;;;;;5057764;28;20044;-73
2022/03/29 04:44:34;;;;;;;147.98;35.20;;;;;;;;;;5053542;28;20029;-73
2022/03/29 04:47:00;;;;;;;111.88;32.88;;;;;;;;;;5053344;28;20049;-73
2022/03/29 04:49:26;;;;;;;284.65;43.45;;;;;;;;;;5053445;28;20043;-73
2022/03/29 04:51:52;;;;;;;71.20;30.33;;;;;;;;;;5053428;28;20017;-73
2022/03/29 04:54:18;;;;;;;119.18;35.08;;;;;;;;;;5053458;28;20027;-73
2022/03/29 04:56:44;;;;;;;302.15;43.35;;;;;;;;;;5053257;28;20109;-73
2022/03/29 04:59:11;;;;;;;115.65;34.45;;;;;;;;;;5053280;28;20028;-74
2022/03/29 05:01:39;;;;;;;136.27;35.10;;;;;;;;;;5053393;28;20048;-73
2022/03/29 05:04:08;;;;;;;88.05;32.10;;;;;;;;;;5053174;28;20028;-74
2022/03/29 05:06:35;;;;;;;181.23;38.38;;;;;;;;;;5053000;28;20479;-74
2022/03/29 05:09:01;;;;;;;166.10;36.40;;;;;;;;;;5053055;28;20870;-73
2022/03/29 05:11:27;;;;;;;148.95;38.10;;;;;;;;;;5052850;28;20079;-74
2022/03/29 05:13:53;;;;;;;96.15;32.10;;;;;;;;;;5064420;28;20029;-74
2022/03/29 05:16:19;;;;;;;257.80;44.53;;;;;;;;;;5072945;28;20033;-73
2022/03/29 05:18:46;;;;;;;111.18;34.20;;;;;;;;;;5073014;28;20021;-73
2022/03/29 05:21:12;;;;;;;80.10;32.45;;;;;;;;;;5072717;28;20024;-73
2022/03/29 05:23:38;;;;;;;88.35;33.50;;;;;;;;;;5072847;28;20028;-74
2022/03/29 05:26:04;;;;;;;158.20;38.95;;;;;;;;;;5072369;28;20067;-74
2022/03/29 05:28:31;;;;;;;90.18;34.22;;;;;;;;;;5072676;28;20032;-73
2022/03/29 05:30:57;;;;;;;132.32;37.20;;;;;;;;;;5054493;28;20470;-73
2022/03/29 05:33:23;;;;;;;97.45;34.70;;;;;;;;;;5072564;28;20455;-74
2022/03/29 05:35:49;;;;;;;281.42;45.05;;;;;;;;;;5072351;28;20021;-74
2022/03/29 05:38:15;;;;;;;118.35;36.72;;;;;;;;;;5072467;28;20039;-73
2022/03/29 05:40:41;;;;;;;123.80;35.47;;;;;;;;;;5071994;28;20024;-73
2022/03/29 05:43:13;;;;;;;144.38;37.30;;;;;;;;;;5072368;28;20017;-73
2022/03/29 05:45:40;;;;;;;165.13;39.50;;;;;;;;;;5071991;28;20055;-73
2022/03/29 05:50:52;;;;;;;126.43;35.40;;;;;;;;;;5071749;28;20390;-73
2022/03/29 05:53:18;;;;;;;136.05;38.08;;;;;;;;;;5072273;28;20421;-74
2022/03/29 05:55:45;;;;;;;94.65;34.35;;;;;;;;;;5072003;28;20099;-73
2022/03/29 05:58:11;;;;;;;118.28;36.10;;;;;;;;;;5072196;28;20414;-73
2022/03/29 06:00:38;;;;;;;95.32;34.70;;;;;;;;;;5072039;28;20020;-73
2022/03/29 06:03:04;;;;;;;114.18;37.42;;;;;;;;;;5072153;28;20028;-74
2022/03/29 06:05:31;;;;;;;81.50;32.17;;;;;;;;;;5071909;28;20036;-73
2022/03/29 06:07:59;;;;;;;102.07;34.15;;;;;;;;;;5071842;28;20021;-73
2022/03/29 06:10:25;;;;;;;114.53;36.40;;;;;;;;;;5071819;28;20016;-74
2022/03/29 06:12:51;;;;;;;167.75;39.45;;;;;;;;;;5068585;28;20013;-74
2022/03/29 06:15:18;;;;;;;117.45;35.00;;;;;;;;;;5051914;28;20398;-74
2022/03/29 06:17:44;;;;;;;100.78;34.75;;;;;;;;;;5051984;28;20102;-74
2022/03/29 06:20:10;;;;;;;90.80;34.40;;;;;;;;;;5065317;28;20415;-73
2022/03/29 06:22:42;;;;;;;92.40;32.47;;;;;;;;;;5071785;28;20017;-73
2022/03/29 06:25:09;;;;;;;136.00;37.78;;;;;;;;;;5071741;28;20025;-74
2022/03/29 06:27:35;;;;;;;150.23;39.25;;;;;;;;;;5071501;28;20355;-74
2022/03/29 06:30:01;;;;;;;88.47;35.30;;;;;;;;;;5071601;28;20382;-73
2022/03/29 06:32:27;;;;;;;101.13;35.67;;;;;;;;;;5071720;28;20510;-74
2022/03/29 06:34:53;;;;;;;95.50;35.72;;;;;;;;;;5071552;28;20028;-74
2022/03/29 06:37:19;;;;;;;97.88;35.97;;;;;;;;;;5071492;28;20024;-74
2022/03/29 06:39:45;;;;;;;144.88;39.75;;;;;;;;;;5071500;28;20435;-74
2022/03/29 06:42:11;;;;;;;99.00;34.85;;;;;;;;;;5054853;28;20100;-73
2022/03/29 06:44:39;;;;;;;113.38;37.60;;;;;;;;;;5051843;28;20406;-73
2022/03/29 06:47:06;;;;;;;95.47;35.03;;;;;;;;;;5051632;28;20170;-73
2022/03/29 06:49:32;;;;;;;110.88;35.92;;;;;;;;;;5051703;28;20100;-73
2022/03/29 06:51:58;;;;;;;90.65;34.70;;;;;;;;;;5051695;28;20360;-73
2022/03/29 06:54:24;;;;;;;82.70;33.13;;;;;;;;;;5051462;28;20029;-73
2022/03/29 06:56:50;;;;;;;105.90;36.72;;;;;;;;;;5051329;28;20487;-73
2022/03/29 06:59:16;;;;;;;90.22;36.60;;;;;;;;;;5051275;28;20543;-73
2022/03/29 07:01:42;;;;;;;88.75;35.65;;;;;;;;;;5051597;28;20459;-74
2022/03/29 07:04:09;;;;;;;87.40;34.28;;;;;;;;;;5055515;28;20036;-73
2022/03/29 07:06:35;;;;;;;78.57;32.40;;;;;;;;;;5055316;28;20108;-73
2022/03/29 07:11:46;;;;;;;72.15;28.08;;;;;;;;;;5055221;28;20032;-73
2022/03/29 07:14:13;;;;;;;78.10;32.38;;;;;;;;;;5051271;28;20073;-73
2022/03/29 07:16:41;;;;;;;72.47;30.77;;;;;;;;;;5075321;28;20104;-74
2022/03/29 07:19:10;;;;;;;69.82;28.83;;;;;;;;;;5053713;28;20446;-74
2022/03/29 07:21:39;;;;;;;61.92;30.20;;;;;;;;;;5055151;28;20428;-73
2022/03/29 07:24:08;;;;;;;63.72;29.63;;;;;;;;;;5055180;28;20341;-74
2022/03/29 07:26:35;;;;;;;62.90;27.73;;;;;;;;;;5054785;28;20028;-74
2022/03/29 07:29:01;;;;;;;59.80;27.10;;;;;;;;;;5054817;28;20100;-73
2022/03/29 07:31:27;;;;;;;62.30;27.70;;;;;;;;;;5071564;28;20153;-74
2022/03/29 07:33:53;;;;;;;59.13;28.42;;;;;;;;;;5074872;28;20132;-73
2022/03/29 07:36:19;;;;;;;56.33;26.63;;;;;;;;;;5074670;28;20058;-73
2022/03/29 07:38:45;;;;;;;55.28;25.75;;;;;;;;;;5074704;28;20024;-73
2022/03/29 07:41:11;;;;;;;53.63;26.77;;;;;;;;;;5066337;28;20031;-73
2022/03/29 07:43:37;;;;;;;53.67;25.85;;;;;;;;;;5054754;28;20074;-73
2022/03/29 07:46:03;;;;;;;52.75;24.70;;;;;;;;;;5053806;28;20041;-73
2022/03/29 07:48:29;;;;;;;50.85;24.15;;;;;;;;;;5053399;28;20025;-73
2022/03/29 07:50:56;;;;;;;54.03;25.92;;;;;;;;;;5053254;28;20021;-74
2022/03/29 07:53:25;;;;;;;53.58;25.67;;;;;;;;;;5053359;28;20029;-73
2022/03/29 07:55:51;;;;;;;47.05;24.40;;;;;;;;;;5052895;28;20025;-73
2022/03/29 07:58:19;;;;;;;47.20;23.50;;;;;;;;;;5035323;28;20372;-74
2022/03/29 08:00:46;;;;;;;49.72;25.48;;;;;;;;;;5053170;28;20025;-73
2022/03/29 08:03:14;;;;;;;45.65;23.52;;;;;;;;;;5053119;28;20494;-73
2022/03/29 08:05:44;;;;;;;43.85;23.40;;;;;;;;;;5052902;28;20442;-73
2022/03/29 08:08:11;;;;;;;48.50;23.58;;;;;;;;;;5053116;28;20024;-73
2022/03/29 08:10:38;;;;;;;46.03;23.65;;;;;;;;;;5052720;28;20479;-73
2022/03/29 08:13:06;;;;;;;51.30;25.77;;;;;;;;;;5057184;28;20029;-73
2022/03/29 08:15:32;;;;;;;51.28;24.80;;;;;;;;;;5054674;28;20362;-73
2022/03/29 08:17:59;;;;;;;51.65;25.48;;;;;;;;;;5072910;28;20028;-73
2022/03/29 08:20:25;;;;;;;61.40;24.83;;;;;;;;;;5051274;28;20541;-73
2022/03/29 08:22:53;;;;;;;48.47;24.27;;;;;;;;;;5052705;28;20067;-74
2022/03/29 08:25:21;;;;;;;54.47;24.63;;;;;;;;;;5052560;28;20031;-73
2022/03/29 08:27:48;;;;;;;44.10;22.60;;;;;;;;;;5051234;28;20032;-74
2022/03/29 08:30:15;;;;;;;46.60;24.42;;;;;;;;;;5059096;28;20028;-73
2022/03/29 08:32:41;;;;;;;53.17;24.90;;;;;;;;;;5072854;28;20029;-73
2022/03/29 08:35:08;;;;;;;49.22;24.05;;;;;;;;;;5072634;28;20028;-73
2022/03/29 08:37:38;;;;;;;46.22;23.15;;;;;;;;;;5072616;28;20194;-74
2022/03/29 08:40:05;;;;;;;50.08;24.13;;;;;;;;;;5072666;28;20082;-73
2022/03/29 08:42:31;;;;;;;51.33;25.05;;;;;;;;;;5072231;28;20029;-74
2022/03/29 08:44:58;;;;;;;50.65;24.08;;;;;;;;;;5072495;28;20045;-73
2022/03/29 08:47:25;;;;;;;48.35;24.35;;;;;;;;;;5035479;28;1079086;-74
2022/03/29 08:49:51;;;;;;;57.15;25.08;;;;;;;;;;5055272;28;20139;-74
2022/03/29 08:52:20;;;;;;;52.90;25.25;;;;;;;;;;5073398;28;20111;-74
2022/03/29 08:54:47;;;;;;;51.92;25.58;;;;;;;;;;5073260;28;20025;-73
2022/03/29 08:57:13;;;;;;;54.45;24.80;;;;;;;;;;5073197;28;20170;-73
2022/03/29 08:59:41;;;;;;;52.15;23.88;;;;;;;;;;5055106;28;20119;-74
2022/03/29 09:02:18;;;;;;;51.65;24.13;;;;;;;;;;5073246;28;20550;-74
2022/03/29 09:04:45;;;;;;;45.40;23.27;;;;;;;;;;5073223;28;20509;-74
2022/03/29 09:07:11;;;;;;;45.97;23.67;;;;;;;;;;5072959;28;20101;-73
2022/03/29 09:09:38;;;;;;;46.45;22.35;;;;;;;;;;5055044;28;20044;-74
2022/03/29 09:12:16;;;;;;;44.90;22.45;;;;;;;;;;5072954;28;20024;-74
2022/03/29 09:14:59;;;;;;;50.00;24.20;;;;;;;;;;5072794;28;20478;-73
2022/03/29 09:17:25;;;;;;;;;;;;;;;;;;5073482;28;20467;-74
2022/03/29 09:19:51;;;;;;;47.75;23.55;;;;;;;;;;5072691;28;19904;-74
2022/03/29 09:22:35;;;;;;;51.55;24.75;;;;;;;;;;5072842;28;20032;-74
2022/03/29 09:25:01;;;;;;;48.65;24.65;;;;;;;;;;5071868;28;20086;-74
2022/03/29 09:27:27;;;;;;;54.60;24.85;;;;;;;;;;5054101;28;20083;-74
2022/03/29 09:30:11;;;;;;;48.88;24.27;;;;;;;;;;5054479;28;20458;-74
2022/03/29 09:32:51;;;;;;;50.88;25.15;;;;;;;;;;5072516;28;20020;-74
2022/03/29 09:35:18;;;;;;;50.00;25.23;;;;;;;;;;5072403;28;20016;-74
2022/03/29 09:37:45;;;;;;;48.28;25.75;;;;;;;;;;5072375;28;20309;-74
2022/03/29 09:40:11;;;;;;;52.83;27.40;;;;;;;;;;5072234;28;20031;-74
2022/03/29 09:42:39;;;;;;;47.60;24.58;;;;;;;;;;5052449;28;20025;-74
2022/03/29 09:45:05;;;;;;;51.75;25.85;;;;;;;;;;5052361;28;20494;-73
2022/03/29 09:47:31;;;;;;;47.83;24.88;;;;;;;;;;5052193;28;20053;-74
2022/03/29 09:50:04;;;;;;;52.30;25.08;;;;;;;;;;5052245;28;20472;-74
2022/03/29 09:52:31;;;;;;;47.45;25.08;;;;;;;;;;5052103;28;20021;-74
2022/03/29 09:55:06;;;;;;;49.03;25.20;;;;;;;;;;5052159;28;20021;-74
2022/03/29 09:57:36;;;;;;;48.58;24.48;;;;;;;;;;5052092;28;20091;-74
2022/03/29 10:00:02;;;;;;;49.83;24.98;;;;;;;;;;5052044;28;20021;-74
2022/03/29 10:02:40;;;;;;;45.65;23.73;;;;;;;;;;5052289;28;20075;-74
2022/03/29 10:05:07;;;;;;;47.80;24.88;;;;;;;;;;5052035;28;20082;-74
2022/03/29 10:07:42;;;;;;;46.42;24.83;;;;;;;;;;5051870;28;20047;-74
2022/03/29 10:10:08;;;;;;;48.58;24.88;;;;;;;;;;5051892;28;20052;-74
2022/03/29 10:12:34;;;;;;;46.70;25.02;;;;;;;;;;5034348;28;20375;-74
2022/03/29 10:15:01;;;;;;;48.30;25.38;;;;;;;;;;5071921;28;20036;-74
2022/03/29 10:17:27;;;;;;;45.45;24.73;;;;;;;;;;5071891;28;20029;-73
2022/03/29 10:19:55;;;;;;;43.60;23.52;;;;;;;;;;5071739;28;20055;-74
2022/03/29 10:22:21;;;;;;;46.45;24.25;;;;;;;;;;5071801;28;20442;-73
2022/03/29 10:24:47;;;;;;;44.58;22.40;;;;;;;;;;5071930;28;20028;-74
2022/03/29 10:27:16;;;;;;;41.38;23.17;;;;;;;;;;5071605;28;20036;-74
2022/03/29 10:29:42;;;;;;;38.30;23.05;;;;;;;;;;5071705;28;20534;-74
2022/03/29 10:32:10;;;;;;;39.30;21.77;;;;;;;;;;5071717;28;20055;-74
2022/03/29 10:34:42;;;;;;;37.75;21.63;;;;;;;;;;5053522;28;20020;-74
2022/03/29 10:37:13;;;;;;;41.92;22.50;;;;;;;;;;5071437;28;20038;-74
2022/03/29 10:39:45;;;;;;;39.33;22.27;;;;;;;;;;5071586;28;20803;-74
2022/03/29 10:42:30;;;;;;;39.13;21.00;;;;;;;;;;5055184;28;20376;-73
2022/03/29 10:45:09;;;;;;;39.00;21.15;;;;;;;;;;5051545;28;20025;-74
2022/03/29 10:47:35;;;;;;;34.53;19.25;;;;;;;;;;5051204;28;20105;-74
2022/03/29 10:50:02;;;;;;;37.15;20.27;;;;;;;;;;5051343;28;20017;-74
2022/03/29 10:52:29;;;;;;;44.03;21.65;;;;;;;;;;5051422;28;20020;-74
2022/03/29 10:55:14;;;;;;;40.63;21.40;;;;;;;;;;5051468;28;20048;-74
2022/03/29 10:57:40;;;;;;;42.97;21.35;;;;;;;;;;5051220;28;20032;-74
2022/03/29 11:00:12;;;;;;;38.47;21.15;;;;;;;;;;5051394;28;20021;-74
2022/03/29 11:02:57;;;;;;;38.00;21.17;;;;;;;;;;5051361;28;20039;-74
2022/03/29 11:05:23;;;;;;;41.13;21.60;;;;;;;;;;5051326;28;20068;-74
2022/03/29 11:07:52;;;;;;;35.50;21.52;;;;;;;;;;5051217;28;20021;-74
2022/03/29 11:10:19;;;;;;;36.25;21.95;;;;;;;;;;5051050;28;20025;-74
2022/03/29 11:12:46;;;;;;;33.83;20.67;;;;;;;;;;5053194;28;20019;-74
2022/03/29 11:15:35;;;;;;;36.50;21.27;;;;;;;;;;5071238;28;20024;-74
2022/03/29 11:18:04;;;;;;;37.78;20.45;;;;;;;;;;5071096;28;20347;-74
2022/03/29 11:20:38;;;;;;;32.17;19.80;;;;;;;;;;5071030;28;20101;-74
2022/03/29 11:23:11;;;;;;;30.73;20.38;;;;;;;;;;5070944;28;20301;-73
2022/03/29 11:25:43;;;;;;;29.50;18.20;;;;;;;;;;5052698;28;20032;-73
2022/03/29 11:28:12;;;;;;;30.70;19.13;;;;;;;;;;5071319;28;20104;-73
2022/03/29 11:30:38;;;;;;;29.23;18.13;;;;;;;;;;5070899;28;20029;-74
2022/03/29 11:33:05;;;;;;;37.97;19.90;;;;;;;;;;5071177;28;20016;-74
2022/03/29 11:35:35;;;;;;;29.23;18.55;;;;;;;;;;5070807;28;20028;-73
2022/03/29 11:38:15;;;;;;;34.22;18.38;;;;;;;;;;5070874;28;20025;-73
2022/03/29 11:40:41;;;;;;;40.50;21.73;;;;;;;;;;5052533;28;20459;-73
2022/03/29 11:43:12;;;;;;;35.08;19.88;;;;;;;;;;5070943;28;20081;-74
2022/03/29 11:45:48;;;;;;;29.80;18.95;;;;;;;;;;5070707;28;20051;-74
2022/03/29 11:48:17;;;;;;;29.52;18.48;;;;;;;;;;5071950;28;20012;-74
2022/03/29 11:50:54;;;;;;;35.78;17.85;;;;;;;;;;5074307;28;20025;-74
2022/03/29 11:53:26;;;;;;;29.02;18.75;;;;;;;;;;5074693;28;20025;-73
2022/03/29 11:55:53;;;;;;;30.17;18.02;;;;;;;;;;5074078;28;20028;-74
2022/03/29 11:58:20;;;;;;;32.97;19.25;;;;;;;;;;5074426;28;20569;-73
2022/03/29 12:00:46;;;;;;;30.58;18.65;;;;;;;;;;5074522;28;20388;-74
2022/03/29 12:03:12;;;;;;;32.60;18.88;;;;;;;;;;5074377;28;20042;-74
2022/03/29 12:05:38;;;;;;;31.05;18.25;;;;;;;;;;5074170;28;20028;-75
2022/03/29 12:08:05;;;;;;;29.58;18.65;;;;;;;;;;5074322;28;20378;-74
2022/03/29 12:10:35;;;;;;;31.70;19.23;;;;;;;;;;5074201;28;20459;-74
2022/03/29 12:13:04;;;;;;;28.17;18.42;;;;;;;;;;5074137;28;20029;-74
2022/03/29 12:15:30;;;;;;;27.45;18.40;;;;;;;;;;5074074;28;20036;-74
2022/03/29 12:20:42;;;;;;;29.48;17.20;;;;;;;;;;5073930;28;20058;-74
2022/03/29 12:23:34;;;;;;;28.63;18.27;;;;;;;;;;5073982;28;20052;-74
2022/03/29 12:26:01;;;;;;;28.15;18.92;;;;;;;;;;5069283;28;20059;-74
2022/03/29 12:28:27;;;;;;;29.08;18.60;;;;;;;;;;5073965;28;20142;-74
2022/03/29 12:30:54;;;;;;;31.73;18.70;;;;;;;;;;5073879;28;20066;-74
2022/03/29 12:33:23;;;;;;;26.85;17.85;;;;;;;;;;5073907;28;20020;-74
2022/03/29 12:36:01;;;;;;;43.60;16.95;;;;;;;;;;5073678;28;20462;-73
2022/03/29 12:38:27;;;;;;;24.80;15.57;;;;;;;;;;5073706;28;20433;-73
2022/03/29 12:40:57;;;;;;;31.52;16.20;;;;;;;;;;5073322;28;20020;-73
2022/03/29 12:43:27;;;;;;;27.63;16.88;;;;;;;;;;5073621;28;20052;-73
2022/03/29 12:45:53;;;;;;;29.75;15.75;;;;;;;;;;5073413;28;20044;-74
2022/03/29 12:48:22;;;;;;;26.60;15.02;;;;;;;;;;5073523;28;20028;-73
2022/03/29 12:50:48;;;;;;;24.33;15.07;;;;;;;;;;5073395;28;20048;-74
2022/03/29 12:53:15;;;;;;;27.15;16.38;;;;;;;;;;5073465;28;20609;-74
2022/03/29 12:55:53;;;;;;;22.05;13.70;;;;;;;;;;5073065;28;20038;-74
2022/03/29 12:58:29;;;;;;;22.92;15.27;;;;;;;;;;5073456;28;20097;-74
2022/03/29 13:00:56;;;;;;;25.80;14.77;;;;;;;;;;5072021;28;20028;-74
2022/03/29 13:03:22;;;;;;;36.45;15.32;;;;;;;;;;5073074;28;20021;-74
2022/03/29 13:05:48;;;;;;;26.67;14.57;;;;;;;;;;5072985;28;20012;-73
2022/03/29 13:08:21;;;;;;;24.10;15.10;;;;;;;;;;5073055;28;20039;-73
2022/03/29 13:10:50;;;;;;;28.92;15.27;;;;;;;;;;5072993;28;20113;-73
2022/03/29 13:13:19;;;;;;;22.02;14.32;;;;;;;;;;5072951;28;20167;-74
2022/03/29 13:16:11;;;;;;;22.38;14.70;;;;;;;;;;5072858;28;20020;-74
2022/03/29 13:18:47;;;;;;;27.30;13.80;;;;;;;;;;5072920;28;20032;-74
2022/03/29 13:21:14;;;;;;;20.17;13.10;;;;;;;;;;5054851;28;20030;-74
2022/03/29 13:23:52;;;;;;;27.52;14.48;;;;;;;;;;5054817;28;20393;-74
2022/03/29 13:26:20;;;;;;;23.60;14.50;;;;;;;;;;5072456;28;20107;-74
2022/03/29 13:28:47;;;;;;;23.38;15.95;;;;;;;;;;5072655;28;20021;-74
2022/03/29 13:31:14;;;;;;;25.23;13.45;;;;;;;;;;5072548;28;20505;-73
2022/03/29 13:33:42;;;;;;;20.35;13.15;;;;;;;;;;5072566;28;20021;-73
2022/03/29 13:36:09;;;;;;;23.20;14.30;;;;;;;;;;5072379;28;20033;-74
2022/03/29 13:38:36;;;;;;;22.13;15.02;;;;;;;;;;5072588;28;20039;-74
2022/03/29 13:41:02;;;;;;;23.27;13.07;;;;;;;;;;5065425;28;20036;-74
2022/03/29 13:43:29;;;;;;;20.55;12.35;;;;;;;;;;5052520;28;20033;-74
2022/03/29 13:45:55;;;;;;;22.35;13.00;;;;;;;;;;5052126;28;20368;-74
2022/03/29 13:48:21;;;;;;;22.98;13.05;;;;;;;;;;5052269;28;20074;-74
2022/03/29 13:50:47;;;;;;;25.65;15.15;;;;;;;;;;5052215;28;20044;-74
2022/03/29 13:53:15;;;;;;;20.63;14.55;;;;;;;;;;5052280;28;20025;-74
2022/03/29 13:55:41;;;;;;;24.13;13.82;;;;;;;;;;5051985;28;20036;-74
2022/03/29 13:58:08;;;;;;;23.58;13.57;;;;;;;;;;5052309;28;20095;-74
2022/03/29 14:00:35;;;;;;;18.33;13.20;;;;;;;;;;5051951;28;20052;-74
2022/03/29 14:03:01;;;;;;;20.40;14.02;;;;;;;;;;5052242;28;20079;-74
2022/03/29 14:05:31;;;;;;;21.55;13.77;;;;;;;;;;5051997;28;20422;-74
2022/03/29 14:07:57;;;;;;;23.95;16.17;;;;;;;;;;5051955;28;20060;-74
2022/03/29 14:10:23;;;;;;;24.92;14.90;;;;;;;;;;5051888;28;20109;-74
2022/03/29 14:12:49;;;;;;;21.85;15.80;;;;;;;;;;5054157;28;20459;-74
2022/03/29 14:15:16;;;;;;;23.00;15.02;;;;;;;;;;5071916;28;20028;-74
2022/03/29 14:17:42;;;;;;;24.20;14.27;;;;;;;;;;5071915;28;20033;-74
2022/03/29 14:20:08;;;;;;;19.23;12.57;;;;;;;;;;5071721;28;20035;-74
2022/03/29 14:22:35;;;;;;;19.90;12.55;;;;;;;;;;5071708;28;20020;-74
2022/03/29 14:25:05;;;;;;;20.60;13.90;;;;;;;;;;5072009;28;20368;-74
2022/03/29 14:27:31;;;;;;;18.58;11.98;;;;;;;;;;5071320;28;20025;-74